createdAt,value
2019-01-23T00:01:00.564Z,21.90
2019-01-23T00:06:07.155Z,19.73
2019-01-23T00:11:12.922Z,21.07
2019-01-23T00:16:18.205Z,20.73
2019-01-23T00:21:23.780Z,19.97
2019-01-23T00:26:29.746Z,21.27
2019-01-23T00:31:35.618Z,20.10
2019-01-23T00:36:41.092Z,19.70
2019-01-23T00:41:46.368Z,20.27
2019-01-23T00:46:51.963Z,20.53
2019-01-23T00:51:57.190Z,20.13
2019-01-23T00:57:02.423Z,19.30
2019-01-23T01:02:07.610Z,18.87
2019-01-23T01:07:12.809Z,19.33
2019-01-23T01:12:18.515Z,19.53
2019-01-23T01:17:24.047Z,20.00
2019-01-23T01:22:29.240Z,21.33
2019-01-23T01:27:35.384Z,20.73
2019-01-23T01:32:40.952Z,20.07
2019-01-23T01:37:46.996Z,21.73
2019-01-23T01:42:52.195Z,20.40
2019-01-23T01:47:57.411Z,20.70
2019-01-23T01:53:02.945Z,21.53
2019-01-23T01:58:10.203Z,20.80
2019-01-23T02:03:15.802Z,20.67
2019-01-23T02:08:21.451Z,21.37
2019-01-23T02:13:27.011Z,21.07
2019-01-23T02:18:32.210Z,21.30
2019-01-23T02:23:38.733Z,22.00
2019-01-23T02:28:43.974Z,19.43
2019-01-23T02:33:49.199Z,21.13
2019-01-23T02:38:55.360Z,22.07
2019-01-23T02:44:00.556Z,20.63
2019-01-23T02:49:06.184Z,21.17
2019-01-23T02:54:11.708Z,20.77
2019-01-23T02:59:17.760Z,22.40
2019-01-23T03:04:23.383Z,20.23
2019-01-23T03:09:28.684Z,21.47
2019-01-23T03:14:34.053Z,20.93
2019-01-23T03:19:39.516Z,21.30
2019-01-23T03:24:45.378Z,21.73
2019-01-23T03:29:50.580Z,21.70
2019-01-23T03:34:56.148Z,20.47
2019-01-23T03:40:01.350Z,21.13
2019-01-23T03:45:08.049Z,20.83
2019-01-23T03:50:15.152Z,21.83
2019-01-23T03:55:20.602Z,20.17
2019-01-23T04:00:25.899Z,20.70
2019-01-23T04:05:31.372Z,19.83
2019-01-23T04:10:36.572Z,21.07
2019-01-23T04:15:42.053Z,20.47
2019-01-23T04:20:47.732Z,21.23
2019-01-23T04:25:53.310Z,20.70
2019-01-23T04:30:59.908Z,21.83
2019-01-23T04:36:05.146Z,22.43
2019-01-23T04:41:10.687Z,20.70
2019-01-23T04:46:15.923Z,20.53
2019-01-23T04:51:40.258Z,20.80
2019-01-23T04:56:46.332Z,19.27
2019-01-23T05:01:52.593Z,20.87
2019-01-23T05:06:57.799Z,21.03
2019-01-23T05:12:03.019Z,21.50
2019-01-23T05:17:08.345Z,21.63
2019-01-23T05:22:13.858Z,21.10
2019-01-23T05:27:20.333Z,19.80
2019-01-23T05:32:25.562Z,20.17
2019-01-23T05:37:30.720Z,20.37
2019-01-23T05:42:36.199Z,20.70
2019-01-23T05:47:41.496Z,20.10
2019-01-23T05:52:48.339Z,20.83
2019-01-23T05:57:55.065Z,22.07
2019-01-23T06:03:00.244Z,21.50
2019-01-23T06:08:05.439Z,21.30
2019-01-23T06:13:10.971Z,20.93
2019-01-23T06:18:18.247Z,21.13
2019-01-23T06:23:23.626Z,22.07
2019-01-23T06:28:28.811Z,22.77
2019-01-23T06:33:34.835Z,21.23
2019-01-23T06:38:41.429Z,20.50
2019-01-23T06:43:47.516Z,22.00
2019-01-23T06:48:52.756Z,22.43
2019-01-23T06:53:58.319Z,21.77
2019-01-23T06:59:03.509Z,21.53
2019-01-23T07:04:09.034Z,22.40
2019-01-23T07:09:14.294Z,22.27
2019-01-23T07:14:19.511Z,21.90
2019-01-23T07:19:25.723Z,21.27
2019-01-23T07:24:30.924Z,22.37
2019-01-23T07:29:36.112Z,21.63
2019-01-23T07:34:42.326Z,21.33
2019-01-23T07:39:47.522Z,21.87
2019-01-23T07:44:52.856Z,21.30
2019-01-23T07:49:58.928Z,21.03
2019-01-23T07:55:05.277Z,23.13
2019-01-23T08:00:13.596Z,21.00
2019-01-23T08:05:21.452Z,21.40
2019-01-23T08:10:26.694Z,21.90
2019-01-23T08:15:35.464Z,23.30
2019-01-23T08:20:40.976Z,22.87
2019-01-23T08:25:46.439Z,22.87
2019-01-23T08:30:52.402Z,23.47
2019-01-23T08:35:57.585Z,24.37
2019-01-23T08:41:03.128Z,23.33
2019-01-23T08:46:08.791Z,25.40
2019-01-23T08:51:14.047Z,24.03
2019-01-23T08:56:19.858Z,24.60
2019-01-23T09:01:25.534Z,24.80
2019-01-23T09:06:30.724Z,24.37
2019-01-23T09:11:36.342Z,25.73
2019-01-23T09:16:41.661Z,26.47
2019-01-23T09:21:47.662Z,25.90
2019-01-23T09:26:52.946Z,26.53
2019-01-23T09:32:31.649Z,26.83
2019-01-23T09:37:59.448Z,26.13
2019-01-23T09:43:35.922Z,26.53
2019-01-23T09:49:11.630Z,24.57
2019-01-23T09:54:17.546Z,24.60
2019-01-23T09:59:22.734Z,26.20
2019-01-23T10:04:29.386Z,26.73
2019-01-23T10:09:34.700Z,25.23
2019-01-23T10:14:40.234Z,27.00
2019-01-23T10:19:45.781Z,23.97
2019-01-23T10:24:51.210Z,26.33
2019-01-23T10:29:56.409Z,26.60
2019-01-23T10:35:02.057Z,26.40
2019-01-23T10:40:09.279Z,25.93
2019-01-23T10:45:15.472Z,25.93
2019-01-23T10:50:20.780Z,26.37
2019-01-23T10:55:25.967Z,27.13
2019-01-23T11:00:31.926Z,26.90
2019-01-23T11:05:37.125Z,26.13
2019-01-23T11:10:42.317Z,26.80
2019-01-23T11:15:47.908Z,26.43
2019-01-23T11:20:53.411Z,25.80
2019-01-23T11:25:58.994Z,26.27
2019-01-23T11:31:04.293Z,26.77
2019-01-23T11:36:10.562Z,26.90
2019-01-23T11:41:16.515Z,27.60
2019-01-23T11:46:22.471Z,27.70
2019-01-23T11:51:27.747Z,28.30
2019-01-23T11:56:33.912Z,29.03
2019-01-23T12:01:39.094Z,29.97
2019-01-23T12:06:44.939Z,29.23
2019-01-23T12:11:51.384Z,29.73
2019-01-23T12:16:57.862Z,30.93
2019-01-23T12:22:03.431Z,31.80
2019-01-23T12:27:08.723Z,30.03
2019-01-23T12:32:14.280Z,33.30
2019-01-23T12:37:19.471Z,31.70
2019-01-23T12:42:24.678Z,33.57
2019-01-23T12:47:29.851Z,30.70
2019-01-23T12:52:35.049Z,30.33
2019-01-23T12:57:40.359Z,31.53
2019-01-23T13:02:45.729Z,30.50
2019-01-23T13:07:51.156Z,31.20
2019-01-23T13:12:56.742Z,33.07
2019-01-23T13:18:01.964Z,31.03
2019-01-23T13:23:08.109Z,30.30
2019-01-23T13:28:13.618Z,29.17
2019-01-23T13:33:18.821Z,30.20
2019-01-23T13:38:24.307Z,31.53
2019-01-23T13:43:29.788Z,28.73
2019-01-23T13:48:35.006Z,30.03
2019-01-23T13:53:40.319Z,29.83
2019-01-23T13:58:46.414Z,32.03
2019-01-23T14:03:51.621Z,31.53
2019-01-23T14:08:57.211Z,31.93
2019-01-23T14:14:02.451Z,32.03
2019-01-23T14:19:07.953Z,30.83
2019-01-23T14:24:13.832Z,32.90
2019-01-23T14:29:19.166Z,29.10
2019-01-23T14:34:25.107Z,30.13
2019-01-23T14:39:30.425Z,30.13
2019-01-23T14:44:35.622Z,29.83
2019-01-23T14:49:40.843Z,29.27
2019-01-23T14:54:46.043Z,27.20
2019-01-23T14:59:51.292Z,27.33
2019-01-23T15:04:57.955Z,27.17
2019-01-23T15:10:03.667Z,26.83
2019-01-23T15:15:08.928Z,26.27
2019-01-23T15:20:18.311Z,28.30
2019-01-23T15:25:23.891Z,25.90
2019-01-23T15:30:29.796Z,27.27
2019-01-23T15:35:35.915Z,27.60
2019-01-23T15:40:42.077Z,28.23
2019-01-23T15:45:47.377Z,28.53
2019-01-23T15:50:52.687Z,28.47
2019-01-23T15:55:58.386Z,27.67
2019-01-23T16:01:03.725Z,28.33
2019-01-23T16:06:09.911Z,29.87
2019-01-23T16:11:15.231Z,27.73
2019-01-23T16:16:20.522Z,30.30
2019-01-23T16:21:26.533Z,29.37
2019-01-23T16:26:31.859Z,27.67
2019-01-23T16:31:38.450Z,29.80
2019-01-23T16:36:44.671Z,29.83
2019-01-23T16:41:50.002Z,30.70
2019-01-23T16:46:55.201Z,33.97
2019-01-23T16:52:01.818Z,36.50
2019-01-23T16:57:07.305Z,36.80
2019-01-23T17:02:12.868Z,42.13
2019-01-23T17:07:18.164Z,43.50
2019-01-23T17:12:23.468Z,45.40
2019-01-23T17:17:28.718Z,45.57
2019-01-23T17:22:33.923Z,46.20
2019-01-23T17:27:40.229Z,48.93
2019-01-23T17:32:45.966Z,52.03
2019-01-23T17:37:52.287Z,49.20
2019-01-23T17:42:57.504Z,50.03
2019-01-23T17:48:03.014Z,50.77
2019-01-23T17:53:08.220Z,49.17
2019-01-23T17:58:14.756Z,54.67
2019-01-23T18:03:21.028Z,50.50
2019-01-23T18:08:26.287Z,51.83
2019-01-23T18:13:31.474Z,52.83
2019-01-23T18:18:37.067Z,53.83
2019-01-23T18:23:42.270Z,51.83
2019-01-23T18:28:47.579Z,52.13
2019-01-23T18:34:36.105Z,54.90
2019-01-23T18:40:12.371Z,51.80
2019-01-23T18:45:27.595Z,49.70
2019-01-23T18:51:02.098Z,51.00
2019-01-23T18:56:08.650Z,51.17
2019-01-23T19:01:14.624Z,53.70
2019-01-23T19:06:19.900Z,51.20
2019-01-23T19:11:25.508Z,51.93
2019-01-23T19:16:31.000Z,43.47
2019-01-23T19:21:36.259Z,46.83
2019-01-23T19:26:41.517Z,47.10
2019-01-23T19:31:47.100Z,45.47
2019-01-23T19:36:53.056Z,45.20
2019-01-23T19:41:58.732Z,44.70
2019-01-23T19:47:05.736Z,43.77
2019-01-23T19:52:11.064Z,44.13
2019-01-23T19:57:16.264Z,49.30
2019-01-23T20:02:21.630Z,44.57
2019-01-23T20:07:26.856Z,39.50
2019-01-23T20:12:32.397Z,41.40
2019-01-23T20:17:37.779Z,39.47
2019-01-23T20:22:43.591Z,41.00
2019-01-23T20:27:48.925Z,42.57
2019-01-23T20:32:54.129Z,42.43
2019-01-23T20:37:59.332Z,42.07
2019-01-23T20:43:05.431Z,41.47
2019-01-23T20:48:11.617Z,42.27
2019-01-23T20:53:17.173Z,42.83
2019-01-23T20:58:23.692Z,43.07
2019-01-23T21:03:34.867Z,41.17
2019-01-23T21:08:37.785Z,43.23
2019-01-23T21:13:42.972Z,43.70
2019-01-23T21:18:48.294Z,39.87
2019-01-23T21:23:53.571Z,40.63
2019-01-23T21:29:00.684Z,39.93
2019-01-23T21:34:06.219Z,37.67
2019-01-23T21:39:12.146Z,35.80
2019-01-23T21:44:18.162Z,35.73
2019-01-23T21:49:23.412Z,34.30
2019-01-23T21:54:29.899Z,35.40
2019-01-23T21:59:36.756Z,38.17
2019-01-23T22:04:42.923Z,36.20
2019-01-23T22:09:48.127Z,35.20
2019-01-23T22:14:53.755Z,37.77
2019-01-23T22:19:59.053Z,36.40
2019-01-23T22:25:05.282Z,35.97
2019-01-23T22:30:16.632Z,36.23
2019-01-23T22:35:22.090Z,36.33
2019-01-23T22:40:28.744Z,35.53
2019-01-23T22:45:34.068Z,35.63
2019-01-23T22:50:39.278Z,35.10
2019-01-23T22:55:44.566Z,35.97
2019-01-23T23:01:09.895Z,33.73
2019-01-23T23:06:15.558Z,35.00
2019-01-23T23:11:21.685Z,33.53
2019-01-23T23:16:26.912Z,32.00
2019-01-23T23:21:32.117Z,31.97
2019-01-23T23:26:37.326Z,31.50
2019-01-23T23:31:42.562Z,33.03
2019-01-23T23:36:47.767Z,32.30
2019-01-23T23:41:53.142Z,32.40
2019-01-23T23:46:59.060Z,31.33
2019-01-23T23:52:05.090Z,30.97
2019-01-23T23:57:10.281Z,32.83
